Time;durP1;ratioP1;P1;durP2;ratioP2;P2;SDS_P1;SDS_P2;PMS_P1;PMS_P2;Temp;Humidity;BMP_temperature;BMP_pressure;BME280_temperature;BME280_humidity;BME280_pressure;Samples;Min_cycle;Max_cycle;Signal;HPM_P1;HPM_P2
2021/07/08 00:02:22;;;;;;;1.88;1.55;;;17.30;99.90;;;;;;5055553;28;20028;-74
2021/07/08 00:04:48;;;;;;;2.63;1.48;;;17.30;99.90;;;;;;5055742;28;20040;-74
2021/07/08 00:07:16;;;;;;;4.00;1.50;;;17.30;99.90;;;;;;5054435;28;20424;-74
2021/07/08 00:09:42;;;;;;;2.75;1.48;;;17.30;99.90;;;;;;5054942;28;20025;-74
2021/07/08 00:12:10;;;;;;;2.55;1.42;;;17.30;99.90;;;;;;5055280;28;20527;-73
2021/07/08 00:14:36;;;;;;;1.63;1.50;;;17.30;99.90;;;;;;5053836;28;20036;-74
2021/07/08 00:17:06;;;;;;;2.05;1.30;;;17.30;99.90;;;;;;5037376;28;20021;-74
2021/07/08 00:19:32;;;;;;;3.10;1.40;;;17.30;99.90;;;;;;5053853;28;20025;-74
2021/07/08 00:22:03;;;;;;;2.75;1.20;;;17.20;99.90;;;;;;5055101;28;20025;-74
2021/07/08 00:24:29;;;;;;;5.60;1.48;;;17.20;99.90;;;;;;5054814;28;20029;-74
2021/07/08 00:26:57;;;;;;;1.40;1.23;;;17.20;99.90;;;;;;5054735;28;20040;-74
2021/07/08 00:29:28;;;;;;;3.10;1.20;;;17.20;99.90;;;;;;5053782;28;20045;-74
2021/07/08 00:31:54;;;;;;;2.35;1.17;;;17.20;99.90;;;;;;5054961;28;20036;-73
2021/07/08 00:34:22;;;;;;;4.03;1.17;;;17.20;99.90;;;;;;5052719;28;20413;-74
2021/07/08 00:36:47;;;;;;;1.80;1.20;;;17.20;99.90;;;;;;5054870;28;20470;-74
2021/07/08 00:39:13;;;;;;;3.33;1.30;;;17.20;99.90;;;;;;5054271;28;20111;-74
2021/07/08 00:41:42;;;;;;;1.52;1.20;;;17.20;99.90;;;;;;5052924;28;20020;-74
2021/07/08 00:44:11;;;;;;;2.05;1.63;;;17.10;99.90;;;;;;5053469;28;20079;-74
2021/07/08 00:46:44;;;;;;;1.50;1.25;;;17.10;99.90;;;;;;5053599;28;20474;-74
2021/07/08 00:49:10;;;;;;;1.85;1.42;;;17.10;99.90;;;;;;5053910;28;20041;-74
2021/07/08 00:51:36;;;;;;;1.42;1.30;;;17.10;99.90;;;;;;5053701;28;20831;-74
2021/07/08 00:54:01;;;;;;;1.98;1.40;;;17.10;99.90;;;;;;5054256;28;20501;-73
2021/07/08 00:56:34;;;;;;;2.63;1.38;;;17.10;99.90;;;;;;5053262;28;20029;-74
2021/07/08 00:59:09;;;;;;;1.75;1.58;;;17.00;99.90;;;;;;5053898;28;20147;-74
2021/07/08 01:01:35;;;;;;;4.15;1.70;;;17.00;99.90;;;;;;5054616;28;20029;-74
2021/07/08 01:04:02;;;;;;;1.60;1.50;;;17.10;99.90;;;;;;5054945;28;20065;-74
2021/07/08 01:06:30;;;;;;;1.95;1.58;;;17.10;99.90;;;;;;5053496;28;20037;-74
2021/07/08 01:08:56;;;;;;;1.98;1.83;;;17.10;99.90;;;;;;5053728;28;20116;-74
2021/07/08 01:11:22;;;;;;;4.13;2.05;;;17.00;99.90;;;;;;5051986;28;20056;-74
2021/07/08 01:13:48;;;;;;;3.13;2.13;;;17.00;99.90;;;;;;5053653;28;20036;-74
2021/07/08 01:16:16;;;;;;;2.40;1.70;;;17.00;99.90;;;;;;5053471;28;20025;-74
2021/07/08 01:18:42;;;;;;;4.88;1.85;;;17.00;99.90;;;;;;5053479;28;20505;-73
2021/07/08 01:21:29;;;;;;;2.13;1.50;;;17.00;99.90;;;;;;5053630;28;20026;-74
2021/07/08 01:23:56;;;;;;;1.70;1.60;;;17.00;99.90;;;;;;5053963;28;20502;-74
2021/07/08 01:26:23;;;;;;;3.05;1.60;;;17.00;99.90;;;;;;5053239;28;20031;-74
2021/07/08 01:29:11;;;;;;;2.53;2.25;;;17.00;99.90;;;;;;5052890;28;20037;-73
2021/07/08 01:31:36;;;;;;;6.28;3.45;;;17.00;99.90;;;;;;5052852;28;20106;-74
2021/07/08 01:34:02;;;;;;;4.63;3.08;;;17.00;99.90;;;;;;5053385;28;20396;-74
2021/07/08 01:36:28;;;;;;;2.83;2.63;;;17.00;99.90;;;;;;5052432;28;20375;-74
2021/07/08 01:38:54;;;;;;;5.13;3.50;;;17.00;99.90;;;;;;5055486;28;20021;-75
2021/07/08 01:41:22;;;;;;;3.70;2.97;;;17.00;99.90;;;;;;5055798;28;20029;-74
2021/07/08 01:43:48;;;;;;;2.30;2.10;;;17.00;99.90;;;;;;5055708;28;20033;-74
2021/07/08 01:46:16;;;;;;;4.60;2.38;;;17.00;99.90;;;;;;5054246;28;20028;-75
2021/07/08 01:48:43;;;;;;;5.25;2.92;;;17.00;99.90;;;;;;5056416;28;20039;-73
2021/07/08 01:51:35;;;;;;;6.18;2.70;;;17.00;99.90;;;;;;5062653;28;20107;-74
2021/07/08 01:54:05;;;;;;;5.15;3.78;;;17.00;99.90;;;;;;5068320;28;20041;-74
2021/07/08 01:56:33;;;;;;;7.07;4.32;;;17.00;99.90;;;;;;5053689;28;20099;-74
2021/07/08 01:58:58;;;;;;;8.70;4.28;;;16.90;99.90;;;;;;5052903;28;20043;-73
2021/07/08 02:01:24;;;;;;;4.78;3.78;;;17.00;99.90;;;;;;5051753;28;20104;-73
2021/07/08 02:03:50;;;;;;;4.95;3.38;;;16.90;99.90;;;;;;5052908;28;20108;-73
2021/07/08 02:06:18;;;;;;;3.95;3.20;;;16.80;99.90;;;;;;5052424;28;20025;-73
2021/07/08 02:08:44;;;;;;;4.65;3.72;;;16.70;99.90;;;;;;5051413;28;20120;-73
2021/07/08 02:11:11;;;;;;;7.05;4.30;;;16.70;99.90;;;;;;5052640;28;20029;-74
2021/07/08 02:13:37;;;;;;;5.88;4.00;;;16.60;99.90;;;;;;5052443;28;20104;-74
2021/07/08 02:16:09;;;;;;;4.72;3.65;;;16.60;99.90;;;;;;5052837;28;20412;-74
2021/07/08 02:18:36;;;;;;;8.85;4.40;;;16.60;99.90;;;;;;5052066;28;20033;-74
2021/07/08 02:21:05;;;;;;;3.53;3.10;;;16.50;99.90;;;;;;5052704;28;20132;-74
2021/07/08 02:23:37;;;;;;;5.18;2.90;;;16.50;99.90;;;;;;5030355;28;20030;-74
2021/07/08 02:26:06;;;;;;;3.38;3.08;;;16.50;99.90;;;;;;5031564;28;20061;-74
2021/07/08 02:28:32;;;;;;;6.70;3.22;;;16.50;99.90;;;;;;5048105;28;20567;-74
2021/07/08 02:31:01;;;;;;;4.35;2.92;;;16.40;99.90;;;;;;5052602;28;20079;-73
2021/07/08 02:33:27;;;;;;;6.70;3.25;;;16.40;99.90;;;;;;5051540;28;20527;-74
2021/07/08 02:35:53;;;;;;;4.57;2.65;;;16.40;99.90;;;;;;5052934;28;20044;-74
2021/07/08 02:38:19;;;;;;;5.30;3.30;;;16.40;99.90;;;;;;5051544;28;20037;-74
2021/07/08 02:40:46;;;;;;;4.20;2.88;;;16.40;99.90;;;;;;5052777;28;20421;-74
2021/07/08 02:43:12;;;;;;;6.32;3.03;;;16.40;99.90;;;;;;5052414;28;20517;-74
2021/07/08 02:45:41;;;;;;;3.55;3.03;;;16.40;99.90;;;;;;5051309;28;20100;-74
2021/07/08 02:48:10;;;;;;;5.00;3.10;;;16.40;99.90;;;;;;5051911;28;20048;-74
2021/07/08 02:50:37;;;;;;;6.38;3.03;;;16.40;99.90;;;;;;5051430;28;20025;-74
2021/07/08 02:53:03;;;;;;;2.90;2.60;;;16.40;99.90;;;;;;5052292;28;20037;-74
2021/07/08 02:55:30;;;;;;;3.70;2.63;;;16.40;99.90;;;;;;5051259;28;20056;-74
2021/07/08 02:57:56;;;;;;;4.65;2.70;;;16.40;99.90;;;;;;5051586;28;20043;-74
2021/07/08 03:00:23;;;;;;;4.53;3.03;;;16.40;99.90;;;;;;5051283;28;20107;-74
2021/07/08 03:02:50;;;;;;;5.22;2.92;;;16.40;99.90;;;;;;5051788;28;20100;-74
2021/07/08 03:05:17;;;;;;;4.22;2.50;;;16.40;99.90;;;;;;5052130;28;20040;-74
2021/07/08 03:07:43;;;;;;;2.80;2.60;;;16.40;99.90;;;;;;5051321;28;20041;-74
2021/07/08 03:10:11;;;;;;;3.60;2.92;;;16.40;99.90;;;;;;5051845;28;20035;-74
2021/07/08 03:12:37;;;;;;;2.72;2.38;;;16.40;99.90;;;;;;5050944;28;20116;-74
2021/07/08 03:15:06;;;;;;;3.35;2.50;;;16.40;99.90;;;;;;5051954;28;20029;-74
2021/07/08 03:17:31;;;;;;;4.55;3.22;;;16.40;99.90;;;;;;5050379;28;20112;-74
2021/07/08 03:19:57;;;;;;;2.80;2.60;;;16.40;99.90;;;;;;5051575;28;20120;-74
2021/07/08 03:22:23;;;;;;;5.10;2.90;;;16.40;99.90;;;;;;5050853;28;20053;-74
2021/07/08 03:24:48;;;;;;;3.33;2.83;;;16.40;99.90;;;;;;5051598;28;20518;-74
2021/07/08 03:27:14;;;;;;;3.30;2.30;;;16.40;99.90;;;;;;5051907;28;20037;-74
2021/07/08 03:29:40;;;;;;;3.63;2.85;;;16.40;99.90;;;;;;5050455;28;20088;-74
2021/07/08 03:32:06;;;;;;;3.83;3.00;;;16.30;99.90;;;;;;5051415;28;20029;-74
2021/07/08 03:34:31;;;;;;;3.58;2.60;;;16.30;99.90;;;;;;5050079;28;20087;-74
2021/07/08 03:36:57;;;;;;;5.13;3.28;;;16.30;99.90;;;;;;5050453;28;20033;-74
2021/07/08 03:39:23;;;;;;;2.95;2.75;;;16.30;99.90;;;;;;5051381;28;20029;-74
2021/07/08 03:41:48;;;;;;;4.95;3.10;;;16.30;99.90;;;;;;5051953;28;20390;-74
2021/07/08 03:44:14;;;;;;;3.03;2.70;;;16.30;99.90;;;;;;5052181;28;20028;-74
2021/07/08 03:46:40;;;;;;;5.85;3.10;;;16.30;99.90;;;;;;5052235;28;20032;-74
2021/07/08 03:49:05;;;;;;;3.53;3.22;;;16.30;99.90;;;;;;5052192;28;20041;-74
2021/07/08 03:51:31;;;;;;;5.53;3.33;;;16.30;99.90;;;;;;5052326;28;20071;-75
2021/07/08 03:53:56;;;;;;;5.57;3.17;;;16.30;99.90;;;;;;5051295;28;20061;-75
2021/07/08 03:56:22;;;;;;;6.07;3.15;;;16.30;99.90;;;;;;5050671;28;20028;-75
2021/07/08 03:58:48;;;;;;;4.97;2.88;;;16.30;99.90;;;;;;5049906;28;20098;-74
2021/07/08 04:01:14;;;;;;;4.10;2.75;;;16.30;99.90;;;;;;5051292;28;20029;-74
2021/07/08 04:03:39;;;;;;;5.20;3.85;;;16.30;99.90;;;;;;5050184;28;20021;-74
2021/07/08 04:06:05;;;;;;;4.22;3.40;;;16.40;99.90;;;;;;5051707;28;20048;-74
2021/07/08 04:08:31;;;;;;;4.53;3.13;;;16.40;99.90;;;;;;5048996;28;20068;-74
2021/07/08 04:10:56;;;;;;;5.03;3.25;;;16.40;99.90;;;;;;5051265;28;20171;-74
2021/07/08 04:13:22;;;;;;;3.78;2.97;;;16.40;99.90;;;;;;5050416;28;20450;-74
2021/07/08 04:15:50;;;;;;;5.40;3.05;;;16.50;99.90;;;;;;5051682;28;20124;-75
2021/07/08 04:18:18;;;;;;;3.67;3.20;;;16.50;99.90;;;;;;5051096;28;20028;-74
2021/07/08 04:20:44;;;;;;;5.32;3.30;;;16.50;99.90;;;;;;5050587;28;20447;-74
2021/07/08 04:23:12;;;;;;;2.90;2.58;;;16.60;99.90;;;;;;5050760;28;20462;-74
2021/07/08 04:25:38;;;;;;;10.23;4.20;;;16.60;99.90;;;;;;5049100;28;20428;-74
2021/07/08 04:28:05;;;;;;;4.85;2.97;;;16.70;99.90;;;;;;5050913;28;20463;-74
2021/07/08 04:30:31;;;;;;;2.95;2.58;;;16.70;99.90;;;;;;5050044;28;20077;-74
2021/07/08 04:32:57;;;;;;;3.22;2.92;;;16.70;99.90;;;;;;5050990;28;20060;-74
2021/07/08 04:35:30;;;;;;;4.40;4.00;;;16.70;99.90;;;;;;5049780;28;20376;-74
2021/07/08 04:37:58;;;;;;;6.25;3.83;;;16.80;99.90;;;;;;5051265;28;20174;-74
2021/07/08 04:40:23;;;;;;;7.78;3.75;;;16.80;99.90;;;;;;5050259;28;20082;-74
2021/07/08 04:42:50;;;;;;;8.57;3.65;;;16.90;99.90;;;;;;5050572;28;20499;-74
2021/07/08 04:45:16;;;;;;;5.10;3.67;;;16.90;99.90;;;;;;5050580;28;20029;-74
2021/07/08 04:47:43;;;;;;;7.28;4.13;;;16.90;99.90;;;;;;5053267;28;20623;-74
2021/07/08 04:50:15;;;;;;;8.38;4.30;;;17.00;99.90;;;;;;5054172;28;20071;-74
2021/07/08 04:52:42;;;;;;;5.05;4.25;;;17.00;99.90;;;;;;5052136;28;20037;-74
2021/07/08 04:55:09;;;;;;;6.30;3.95;;;17.00;99.90;;;;;;5052555;28;20053;-74
2021/07/08 04:57:35;;;;;;;17.95;5.45;;;17.00;99.90;;;;;;5053255;28;20086;-74
2021/07/08 05:00:01;;;;;;;8.45;5.22;;;17.00;99.90;;;;;;5052960;28;20378;-74
2021/07/08 05:02:27;;;;;;;6.65;4.93;;;17.00;99.90;;;;;;5053102;28;20079;-74
2021/07/08 05:04:52;;;;;;;6.55;4.70;;;16.90;99.90;;;;;;5052508;28;20078;-74
2021/07/08 05:07:18;;;;;;;5.88;3.75;;;17.00;99.90;;;;;;5052905;28;20029;-74
2021/07/08 05:09:43;;;;;;;7.30;5.00;;;17.00;99.90;;;;;;5053207;28;20833;-74
2021/07/08 05:12:10;;;;;;;5.57;3.90;;;17.00;99.90;;;;;;5053829;28;20064;-74
2021/07/08 05:14:35;;;;;;;4.95;3.97;;;17.00;99.90;;;;;;5051709;28;20036;-75
2021/07/08 05:17:02;;;;;;;3.80;3.45;;;17.10;99.90;;;;;;5053775;28;20417;-74
2021/07/08 05:19:29;;;;;;;4.53;3.80;;;17.10;99.90;;;;;;5052758;28;20108;-74
2021/07/08 05:21:55;;;;;;;6.90;3.95;;;17.20;99.90;;;;;;5053419;28;20029;-74
2021/07/08 05:24:23;;;;;;;7.05;4.35;;;17.30;99.90;;;;;;5053602;28;20451;-74
2021/07/08 05:26:50;;;;;;;7.05;4.10;;;17.30;99.90;;;;;;5053459;28;20106;-74
2021/07/08 05:29:16;;;;;;;9.60;4.50;;;17.40;99.90;;;;;;5053642;28;20033;-74
2021/07/08 05:31:42;;;;;;;6.80;3.75;;;17.40;99.90;;;;;;5052537;28;20059;-74
2021/07/08 05:34:08;;;;;;;5.07;3.30;;;17.40;99.90;;;;;;5053140;28;20040;-74
2021/07/08 05:36:34;;;;;;;5.05;3.58;;;17.30;99.90;;;;;;5051019;28;20043;-74
2021/07/08 05:39:00;;;;;;;10.60;3.80;;;17.40;99.90;;;;;;5053433;28;20029;-74
2021/07/08 05:41:26;;;;;;;4.10;3.30;;;17.40;99.90;;;;;;5053022;28;20469;-74
2021/07/08 05:43:51;;;;;;;4.57;3.90;;;17.30;99.90;;;;;;5053311;28;20025;-78
2021/07/08 05:46:17;;;;;;;6.22;3.92;;;17.40;99.90;;;;;;5052204;28;20033;-74
2021/07/08 05:48:43;;;;;;;6.18;4.18;;;17.40;99.90;;;;;;5051516;28;20639;-74
2021/07/08 05:51:09;;;;;;;5.55;3.47;;;17.50;99.90;;;;;;5051237;28;20065;-73
2021/07/08 05:53:34;;;;;;;6.97;3.72;;;17.50;99.90;;;;;;5051094;28;20029;-73
2021/07/08 05:56:00;;;;;;;7.63;3.70;;;17.50;99.90;;;;;;5052416;28;20080;-71
2021/07/08 05:58:26;;;;;;;6.07;3.20;;;17.60;99.90;;;;;;5051001;28;20537;-73
2021/07/08 06:00:52;;;;;;;6.70;3.40;;;17.60;99.90;;;;;;5051959;28;20033;-76
2021/07/08 06:03:18;;;;;;;3.72;3.38;;;17.60;99.90;;;;;;5052368;28;20453;-76
2021/07/08 06:05:45;;;;;;;9.05;3.90;;;17.60;99.90;;;;;;5049792;28;20127;-87
2021/07/08 06:08:11;;;;;;;6.45;3.85;;;17.60;99.90;;;;;;5051117;28;20055;-86
2021/07/08 06:10:36;;;;;;;4.47;3.92;;;17.60;99.90;;;;;;5050942;28;20025;-82
2021/07/08 06:13:02;;;;;;;6.07;3.70;;;17.50;99.90;;;;;;5051989;28;20049;-79
2021/07/08 06:15:30;;;;;;;8.43;3.30;;;17.60;99.90;;;;;;5041800;28;20025;-77
2021/07/08 06:17:56;;;;;;;5.22;3.22;;;17.60;99.90;;;;;;5053627;28;20048;-76
2021/07/08 06:20:22;;;;;;;5.15;2.85;;;17.60;99.90;;;;;;5047616;28;20465;-78
2021/07/08 06:22:47;;;;;;;6.43;3.65;;;17.70;99.90;;;;;;5049996;28;20830;-73
2021/07/08 06:25:13;;;;;;;3.90;3.13;;;17.80;99.90;;;;;;5044152;28;20037;-82
2021/07/08 06:27:39;;;;;;;6.57;3.38;;;17.90;99.90;;;;;;5049280;28;20045;-85
2021/07/08 06:30:07;;;;;;;5.97;3.50;;;18.00;99.90;;;;;;5045176;28;20104;-77
2021/07/08 06:32:33;;;;;;;6.28;3.40;;;18.10;99.90;;;;;;5052109;28;20531;-82
2021/07/08 06:34:58;;;;;;;6.95;3.50;;;18.10;99.90;;;;;;5051681;28;20113;-83
2021/07/08 06:37:25;;;;;;;8.77;4.47;;;18.10;99.90;;;;;;5050488;28;20123;-80
2021/07/08 06:39:53;;;;;;;8.07;3.97;;;18.20;99.90;;;;;;5047055;28;20065;-81
2021/07/08 06:42:19;;;;;;;7.78;4.18;;;18.20;99.90;;;;;;5042598;28;20073;-83
2021/07/08 06:44:44;;;;;;;5.85;3.63;;;18.20;99.90;;;;;;5040046;28;20029;-83
2021/07/08 06:47:14;;;;;;;9.13;3.80;;;18.20;99.90;;;;;;5049468;28;20023;-84
2021/07/08 06:49:40;;;;;;;6.82;3.20;;;18.10;99.90;;;;;;5042874;28;20499;-83
2021/07/08 06:52:06;;;;;;;6.97;3.50;;;18.10;99.90;;;;;;5050297;28;20033;-81
2021/07/08 06:54:32;;;;;;;5.80;3.60;;;18.10;99.90;;;;;;5045826;28;20132;-83
2021/07/08 06:56:58;;;;;;;4.30;3.08;;;18.10;99.90;;;;;;5041542;28;20053;-82
2021/07/08 06:59:24;;;;;;;8.93;4.05;;;18.10;99.90;;;;;;5040611;28;20064;-81
2021/07/08 07:01:50;;;;;;;4.53;3.80;;;18.10;99.90;;;;;;5043447;28;20449;-80
2021/07/08 07:04:16;;;;;;;5.78;3.17;;;18.10;99.90;;;;;;5050571;28;20029;-83
2021/07/08 07:06:41;;;;;;;5.10;3.63;;;18.10;99.90;;;;;;5051117;28;20032;-81
2021/07/08 07:09:07;;;;;;;6.13;3.53;;;18.10;99.90;;;;;;5049350;28;20032;-82
2021/07/08 07:11:33;;;;;;;3.10;2.80;;;18.20;99.90;;;;;;5041636;28;20029;-78
2021/07/08 07:13:59;;;;;;;3.78;2.47;;;18.20;99.90;;;;;;5045167;28;20021;-85
2021/07/08 07:16:24;;;;;;;7.10;3.22;;;18.30;99.90;;;;;;5051591;28;20033;-86
2021/07/08 07:18:50;;;;;;;4.90;2.75;;;18.50;99.90;;;;;;5051145;28;20346;-83
2021/07/08 07:21:15;;;;;;;2.97;2.20;;;18.50;99.90;;;;;;5050823;28;20032;-82
2021/07/08 07:23:45;;;;;;;3.08;2.28;;;18.70;99.90;;;;;;5050195;28;20519;-82
2021/07/08 07:26:11;;;;;;;2.57;2.27;;;18.80;99.90;;;;;;5050981;28;20112;-83
2021/07/08 07:28:38;;;;;;;5.03;2.47;;;18.90;99.90;;;;;;5040311;28;20511;-81
2021/07/08 07:31:04;;;;;;;6.57;2.53;;;19.00;99.90;;;;;;5041689;28;20039;-78
2021/07/08 07:33:31;;;;;;;4.97;2.75;;;19.10;99.90;;;;;;5043384;28;20838;-78
2021/07/08 07:35:56;;;;;;;3.97;2.38;;;19.10;99.90;;;;;;5051667;28;20040;-79
2021/07/08 07:38:22;;;;;;;4.07;2.90;;;19.30;99.90;;;;;;5050575;28;20482;-79
2021/07/08 07:40:48;;;;;;;3.63;2.72;;;19.30;99.90;;;;;;5049888;28;20240;-78
2021/07/08 07:43:14;;;;;;;4.53;2.65;;;19.40;99.90;;;;;;5048627;28;20047;-78
2021/07/08 07:45:41;;;;;;;2.63;2.42;;;19.40;99.90;;;;;;5048904;28;20107;-78
2021/07/08 07:48:08;;;;;;;3.47;2.90;;;19.50;99.90;;;;;;5050493;28;20393;-78
2021/07/08 07:50:33;;;;;;;6.30;3.03;;;19.50;99.90;;;;;;5048531;28;20182;-78
2021/07/08 07:53:00;;;;;;;3.33;2.78;;;19.60;99.90;;;;;;5049157;28;20115;-79
2021/07/08 07:55:28;;;;;;;6.47;3.70;;;19.60;99.90;;;;;;5049856;28;20047;-79
2021/07/08 07:57:59;;;;;;;6.65;2.92;;;19.60;99.90;;;;;;5049271;28;20041;-79
2021/07/08 08:00:26;;;;;;;4.57;2.78;;;19.70;99.90;;;;;;5048721;28;20474;-79
2021/07/08 08:02:52;;;;;;;6.85;3.40;;;19.80;99.90;;;;;;5049231;28;20663;-79
2021/07/08 08:10:30;;;;;;;4.43;2.85;;;19.90;99.90;;;;;;5043249;28;20166;-78
2021/07/08 08:12:58;;;;;;;5.35;3.40;;;20.00;99.90;;;;;;5049718;28;20103;-79
2021/07/08 08:15:24;;;;;;;4.22;2.83;;;20.00;99.90;;;;;;5050112;28;20048;-79
2021/07/08 08:17:50;;;;;;;4.28;2.60;;;20.00;99.90;;;;;;5048913;28;20061;-79
2021/07/08 08:20:16;;;;;;;3.47;2.88;;;20.00;99.90;;;;;;5049936;28;20052;-78
2021/07/08 08:22:42;;;;;;;5.63;3.28;;;20.00;99.90;;;;;;5052861;28;20032;-79
2021/07/08 08:25:10;;;;;;;5.40;3.25;;;20.00;99.90;;;;;;5051803;28;20378;-79
2021/07/08 08:27:37;;;;;;;5.53;3.20;;;20.10;99.90;;;;;;5053892;28;20047;-78
2021/07/08 08:30:04;;;;;;;5.00;3.70;;;20.20;99.90;;;;;;5047069;28;20036;-79
2021/07/08 08:32:30;;;;;;;3.72;2.85;;;20.40;99.90;;;;;;5053370;28;20422;-79
2021/07/08 08:34:55;;;;;;;4.07;3.20;;;20.60;99.90;;;;;;5052880;28;20036;-79
2021/07/08 08:37:21;;;;;;;5.32;2.92;;;20.80;99.90;;;;;;5051680;28;20033;-79
2021/07/08 08:39:47;;;;;;;3.00;2.67;;;21.10;99.90;;;;;;5052952;28;20075;-79
2021/07/08 08:42:13;;;;;;;7.20;3.08;;;21.30;99.90;;;;;;5043945;28;20021;-79
2021/07/08 08:44:38;;;;;;;4.30;2.25;;;21.60;99.90;;;;;;5051284;28;20025;-79
2021/07/08 08:47:13;;;;;;;2.58;1.90;;;21.80;99.90;;;;;;5051531;28;20036;-79
2021/07/08 08:49:40;;;;;;;3.10;1.63;;;22.10;99.90;;;;;;5045328;28;20041;-79
2021/07/08 08:52:07;;;;;;;2.53;1.70;;;22.40;99.90;;;;;;5052432;28;20079;-79
2021/07/08 08:54:34;;;;;;;3.90;1.90;;;22.60;99.90;;;;;;5052708;28;20098;-79
2021/07/08 08:57:00;;;;;;;2.67;2.10;;;22.80;99.20;;;;;;5053425;28;20056;-79
2021/07/08 08:59:26;;;;;;;3.70;1.75;;;22.90;98.80;;;;;;5053281;28;20036;-79
2021/07/08 09:02:14;;;;;;;6.60;3.60;;;22.90;99.00;;;;;;5052739;28;20033;-80
2021/07/08 09:04:40;;;;;;;4.40;2.65;;;23.00;98.70;;;;;;5052118;28;20466;-79
2021/07/08 09:07:26;;;;;;;3.00;2.10;;;23.10;97.70;;;;;;5053001;28;20120;-79
2021/07/08 09:10:00;;;;;;;3.58;2.10;;;23.20;96.90;;;;;;5050739;28;20486;-79
2021/07/08 09:12:26;;;;;;;3.83;2.53;;;23.20;97.60;;;;;;5053266;28;20020;-79
2021/07/08 09:15:17;;;;;;;4.65;2.13;;;23.20;98.00;;;;;;5051960;28;20017;-80
2021/07/08 09:17:43;;;;;;;;;;;23.20;98.00;;;;;;5052964;28;20040;-79
2021/07/08 09:20:12;;;;;;;6.03;3.35;;;23.10;98.40;;;;;;5053178;28;19951;-80
2021/07/08 09:22:39;;;;;;;7.35;3.40;;;23.00;98.80;;;;;;5051991;28;20113;-79
2021/07/08 09:25:20;;;;;;;8.57;3.67;;;22.90;99.00;;;;;;5052208;28;20131;-79
2021/07/08 09:28:12;;;;;;;5.45;3.70;;;22.80;99.70;;;;;;5050750;28;20481;-79
2021/07/08 09:30:38;;;;;;;2.40;2.20;;;22.80;99.50;;;;;;5050580;28;20053;-79
2021/07/08 09:33:10;;;;;;;4.90;2.65;;;22.70;98.90;;;;;;5044379;28;20474;-79
2021/07/08 09:35:37;;;;;;;3.08;2.78;;;22.70;99.30;;;;;;5045998;28;20028;-79
2021/07/08 09:38:11;;;;;;;6.32;3.33;;;22.60;98.70;;;;;;5052513;28;20065;-79
2021/07/08 09:40:37;;;;;;;7.85;2.97;;;22.50;98.30;;;;;;5051006;28;20032;-79
2021/07/08 09:43:03;;;;;;;3.13;2.83;;;22.50;97.90;;;;;;5053012;28;20029;-79
2021/07/08 09:45:29;;;;;;;4.03;3.35;;;22.50;98.00;;;;;;5052622;28;20048;-79
2021/07/08 09:48:17;;;;;;;5.18;2.50;;;22.50;97.90;;;;;;5052029;28;20279;-79
2021/07/08 09:50:43;;;;;;;3.17;2.88;;;22.60;97.90;;;;;;5049408;28;20462;-80
2021/07/08 09:53:17;;;;;;;2.47;2.25;;;22.70;97.30;;;;;;5052340;28;20039;-79
2021/07/08 09:58:34;;;;;;;3.10;2.65;;;22.80;95.20;;;;;;5052305;28;20037;-79
2021/07/08 10:01:14;;;;;;;3.97;2.90;;;22.80;94.20;;;;;;5051106;28;20032;-79
2021/07/08 10:03:45;;;;;;;2.97;1.98;;;22.70;94.60;;;;;;5050336;28;20029;-79
2021/07/08 10:06:12;;;;;;;2.97;2.25;;;22.70;94.80;;;;;;5052338;28;20033;-79
2021/07/08 10:08:40;;;;;;;3.15;2.38;;;22.70;94.80;;;;;;5051463;28;20060;-79
2021/07/08 10:11:06;;;;;;;2.35;1.90;;;22.70;93.40;;;;;;5052677;28;20092;-79
2021/07/08 10:13:35;;;;;;;4.22;2.20;;;22.80;93.10;;;;;;5052286;28;20126;-79
2021/07/08 10:16:04;;;;;;;3.95;2.38;;;22.80;93.70;;;;;;5051113;28;20474;-79
2021/07/08 10:18:32;;;;;;;5.20;2.42;;;22.90;93.60;;;;;;5045829;28;20033;-79
2021/07/08 10:20:59;;;;;;;3.75;1.65;;;23.00;92.10;;;;;;5051889;28;20106;-80
2021/07/08 10:23:26;;;;;;;2.28;2.08;;;23.10;91.30;;;;;;5051404;28;20037;-80
2021/07/08 10:25:52;;;;;;;2.78;1.88;;;23.20;91.20;;;;;;5050943;28;20029;-80
2021/07/08 10:28:19;;;;;;;2.50;2.30;;;23.50;90.20;;;;;;5051560;28;20041;-80
2021/07/08 10:30:48;;;;;;;4.13;2.33;;;23.60;89.60;;;;;;5051054;28;20497;-80
2021/07/08 10:33:18;;;;;;;3.58;2.00;;;23.60;89.80;;;;;;5050356;28;20395;-79
2021/07/08 10:35:48;;;;;;;2.33;1.73;;;23.70;89.90;;;;;;5049631;28;20036;-79
2021/07/08 10:38:29;;;;;;;;;;;23.80;89.90;;;;;;5051787;28;20041;-79
2021/07/08 10:40:56;;;;;;;2.40;1.92;;;23.90;88.20;;;;;;5050778;28;19957;-80
2021/07/08 10:43:43;;;;;;;3.83;2.83;;;23.90;87.40;;;;;;5051528;28;20036;-78
2021/07/08 10:46:14;;;;;;;6.03;3.10;;;24.00;90.30;;;;;;5050374;28;20450;-79
2021/07/08 10:48:45;;;;;;;3.08;2.05;;;24.00;90.00;;;;;;5050685;28;20484;-78
2021/07/08 10:51:27;;;;;;;2.63;2.30;;;23.90;90.00;;;;;;5051368;28;20488;-79
2021/07/08 10:53:53;;;;;;;4.25;2.28;;;23.80;89.70;;;;;;5050020;28;20029;-78
2021/07/08 10:56:37;;;;;;;3.75;1.63;;;23.80;88.40;;;;;;5051507;28;20032;-79
2021/07/08 10:59:13;;;;;;;2.42;1.70;;;23.60;84.50;;;;;;5050423;28;20037;-79
2021/07/08 11:01:42;;;;;;;2.08;1.42;;;23.40;84.50;;;;;;5049611;28;20025;-78
2021/07/08 11:04:09;;;;;;;2.63;1.15;;;23.30;85.00;;;;;;5051111;28;20179;-79
2021/07/08 11:06:39;;;;;;;3.15;1.50;;;23.10;85.10;;;;;;5051161;28;20091;-78
2021/07/08 11:09:25;;;;;;;1.98;1.00;;;23.00;85.50;;;;;;5049939;28;20123;-79
2021/07/08 11:11:51;;;;;;;2.40;1.63;;;22.90;86.30;;;;;;5048783;28;20067;-79
2021/07/08 11:14:19;;;;;;;1.60;1.20;;;22.70;87.20;;;;;;5048945;28;20053;-79
2021/07/08 11:17:02;;;;;;;2.72;1.30;;;22.70;87.50;;;;;;5042087;28;20021;-79
2021/07/08 11:19:27;;;;;;;2.42;1.33;;;22.70;87.50;;;;;;5049897;28;20029;-79
2021/07/08 11:21:57;;;;;;;1.55;1.15;;;22.70;86.30;;;;;;5049769;28;20473;-79
2021/07/08 11:24:23;;;;;;;3.08;1.38;;;22.80;87.10;;;;;;5049500;28;20370;-79
2021/07/08 11:26:57;;;;;;;1.42;1.27;;;22.80;87.90;;;;;;5048935;28;20029;-79
2021/07/08 11:29:35;;;;;;;6.22;1.70;;;22.90;88.60;;;;;;5049763;28;20047;-79
2021/07/08 11:32:15;;;;;;;4.20;1.27;;;23.00;89.10;;;;;;5050152;28;20025;-79
2021/07/08 11:34:53;;;;;;;3.47;1.27;;;23.00;88.40;;;;;;5050000;28;20174;-79
2021/07/08 11:37:23;;;;;;;1.88;1.10;;;23.10;87.40;;;;;;5050678;28;20025;-79
2021/07/08 11:39:57;;;;;;;2.75;1.10;;;23.20;86.40;;;;;;5049934;28;20032;-79
2021/07/08 11:42:24;;;;;;;2.15;1.20;;;23.40;86.50;;;;;;5050431;28;20047;-80
2021/07/08 11:44:54;;;;;;;1.00;1.00;;;23.50;86.40;;;;;;5048685;28;20025;-79
2021/07/08 11:47:20;;;;;;;1.20;1.00;;;23.60;85.60;;;;;;5047946;28;20029;-79
2021/07/08 11:49:48;;;;;;;2.25;1.08;;;23.70;84.00;;;;;;5050016;28;20029;-81
2021/07/08 11:52:22;;;;;;;1.83;1.17;;;23.80;84.00;;;;;;5050330;28;20099;-79
2021/07/08 11:54:56;;;;;;;1.75;1.27;;;23.80;84.60;;;;;;5050559;28;20060;-80
2021/07/08 11:57:22;;;;;;;1.50;1.40;;;23.80;85.80;;;;;;5054032;28;20451;-80
2021/07/08 11:59:48;;;;;;;1.23;1.15;;;23.90;85.20;;;;;;5055418;28;20033;-80
2021/07/08 12:02:30;;;;;;;1.65;1.52;;;24.00;84.80;;;;;;5055352;28;20090;-79
2021/07/08 12:05:16;;;;;;;2.05;1.52;;;24.10;84.90;;;;;;5054103;28;20025;-80
2021/07/08 12:07:54;;;;;;;2.03;1.83;;;24.20;81.40;;;;;;5046854;28;20423;-79
2021/07/08 12:10:26;;;;;;;3.15;1.60;;;24.20;81.30;;;;;;5054749;28;20506;-80
2021/07/08 12:12:54;;;;;;;2.22;2.00;;;24.10;82.50;;;;;;5053428;28;20029;-80
2021/07/08 12:15:21;;;;;;;2.35;1.27;;;24.00;81.80;;;;;;5053043;28;20037;-79
2021/07/08 12:17:52;;;;;;;3.53;1.50;;;23.80;89.50;;;;;;5053147;28;20037;-80
2021/07/08 12:20:19;;;;;;;2.47;1.23;;;23.40;91.10;;;;;;5054428;28;20474;-79
2021/07/08 12:22:59;;;;;;;2.75;1.15;;;23.20;92.40;;;;;;5053715;28;20051;-79
2021/07/08 12:25:26;;;;;;;2.40;1.25;;;23.00;92.80;;;;;;5054418;28;20056;-79
2021/07/08 12:27:53;;;;;;;3.78;1.75;;;22.80;94.10;;;;;;5052626;28;20104;-79
2021/07/08 12:30:21;;;;;;;2.67;1.60;;;22.80;94.00;;;;;;5054223;28;20029;-79
2021/07/08 12:32:46;;;;;;;4.82;1.58;;;22.90;94.20;;;;;;5052597;28;20028;-79
2021/07/08 12:35:12;;;;;;;3.22;1.10;;;22.80;93.90;;;;;;5054264;28;20037;-79
2021/07/08 12:37:40;;;;;;;2.28;1.60;;;22.70;94.50;;;;;;5053754;28;20494;-79
2021/07/08 12:40:11;;;;;;;8.30;1.23;;;22.70;94.40;;;;;;5051801;28;20029;-79
2021/07/08 12:42:48;;;;;;;2.55;1.40;;;22.70;94.40;;;;;;5054283;28;20060;-80
2021/07/08 12:45:16;;;;;;;1.55;1.25;;;22.60;95.20;;;;;;5053386;28;20036;-80
2021/07/08 12:47:53;;;;;;;1.95;1.00;;;22.60;95.60;;;;;;5053034;28;20029;-80
2021/07/08 12:50:36;;;;;;;1.38;1.00;;;22.60;95.70;;;;;;5047052;28;20033;-80
2021/07/08 12:53:13;;;;;;;1.58;1.00;;;22.60;94.30;;;;;;5048032;28;20425;-80
2021/07/08 12:55:44;;;;;;;2.25;0.98;;;22.60;94.50;;;;;;5051359;28;20047;-80
2021/07/08 12:58:20;;;;;;;2.33;0.90;;;22.70;94.00;;;;;;5053342;28;20037;-79
2021/07/08 13:00:48;;;;;;;8.02;1.10;;;22.60;94.20;;;;;;5053569;28;20024;-79
2021/07/08 13:03:24;;;;;;;4.70;1.17;;;22.50;93.70;;;;;;5051699;28;20051;-79